createdAt,value
2019-03-27T00:00:37.136Z,88.82
2019-03-27T00:05:57.904Z,88.99
2019-03-27T00:11:18.927Z,89.75
2019-03-27T00:16:39.707Z,89.90
2019-03-27T00:22:00.847Z,89.65
2019-03-27T00:27:21.372Z,89.69
2019-03-27T00:32:42.303Z,89.40
2019-03-27T00:38:03.591Z,88.16
2019-03-27T00:43:24.692Z,87.16
2019-03-27T00:48:45.222Z,87.76
2019-03-27T00:54:06.468Z,87.79
2019-03-27T00:59:29.490Z,87.74
2019-03-27T01:04:50.406Z,87.71
2019-03-27T01:10:12.050Z,87.41
2019-03-27T01:15:39.655Z,87.02
2019-03-27T01:20:55.899Z,87.65
2019-03-27T01:26:17.841Z,86.87
2019-03-27T01:31:38.877Z,87.08
2019-03-27T01:37:00.248Z,86.55
2019-03-27T01:42:21.335Z,86.81
2019-03-27T01:47:42.671Z,86.26
2019-03-27T01:53:03.469Z,85.38
2019-03-27T01:58:24.633Z,85.38
2019-03-27T02:03:45.690Z,85.80
2019-03-27T02:09:07.240Z,86.23
2019-03-27T02:14:28.672Z,85.94
2019-03-27T02:19:49.560Z,85.62
2019-03-27T02:25:11.185Z,85.94
2019-03-27T02:30:32.053Z,85.80
2019-03-27T02:35:53.483Z,86.00
2019-03-27T02:41:14.597Z,85.96
2019-03-27T02:46:35.806Z,86.05
2019-03-27T02:51:56.728Z,84.74
2019-03-27T02:57:17.544Z,83.91
2019-03-27T03:02:38.727Z,83.34
2019-03-27T03:07:59.891Z,84.05
2019-03-27T03:13:21.203Z,85.32
2019-03-27T03:18:42.322Z,85.75
2019-03-27T03:24:03.689Z,85.64
2019-03-27T03:29:24.765Z,86.61
2019-03-27T03:34:45.918Z,86.88
2019-03-27T03:40:07.741Z,86.77
2019-03-27T03:45:28.767Z,86.67
2019-03-27T03:50:51.885Z,86.77
2019-03-27T03:56:13.976Z,85.69
2019-03-27T04:01:36.357Z,84.68
2019-03-27T04:06:56.807Z,84.06
2019-03-27T04:12:18.025Z,83.69
2019-03-27T04:17:39.164Z,82.94
2019-03-27T04:23:00.075Z,82.77
2019-03-27T04:28:21.515Z,82.49
2019-03-27T04:33:42.775Z,82.98
2019-03-27T04:39:04.921Z,83.20
2019-03-27T04:44:25.779Z,82.99
2019-03-27T04:49:46.889Z,83.66
2019-03-27T04:55:07.887Z,83.66
2019-03-27T05:00:29.147Z,83.51
2019-03-27T05:05:50.304Z,83.65
2019-03-27T05:11:11.496Z,83.26
2019-03-27T05:16:32.974Z,82.69
2019-03-27T05:21:53.939Z,82.94
2019-03-27T05:27:14.792Z,83.63
2019-03-27T05:32:35.904Z,83.02
2019-03-27T05:37:56.812Z,82.98
2019-03-27T05:43:17.867Z,83.54
2019-03-27T05:48:38.651Z,83.87
2019-03-27T05:53:59.871Z,82.71
2019-03-27T05:59:20.983Z,82.71
2019-03-27T06:04:42.272Z,82.09
2019-03-27T06:10:03.958Z,82.66
2019-03-27T06:15:25.974Z,82.67
2019-03-27T06:20:47.133Z,81.74
2019-03-27T06:26:08.455Z,80.78
2019-03-27T06:31:29.794Z,79.89
2019-03-27T06:36:50.915Z,79.15
2019-03-27T06:42:12.274Z,79.70
2019-03-27T06:47:32.876Z,78.71
2019-03-27T06:52:54.009Z,79.47
2019-03-27T06:58:14.637Z,79.47
2019-03-27T07:03:35.452Z,78.71
2019-03-27T07:08:56.706Z,78.69
2019-03-27T07:14:17.849Z,78.63
2019-03-27T07:19:38.822Z,77.57
2019-03-27T07:25:00.020Z,77.48
2019-03-27T07:30:21.441Z,77.65
2019-03-27T07:35:42.889Z,77.82
2019-03-27T07:41:04.625Z,77.53
2019-03-27T07:46:25.534Z,76.19
2019-03-27T07:51:46.350Z,75.01
2019-03-27T07:57:07.510Z,75.20
2019-03-27T08:02:28.913Z,73.58
2019-03-27T08:07:50.257Z,73.63
2019-03-27T08:13:11.537Z,73.25
2019-03-27T08:18:32.742Z,73.65
2019-03-27T08:23:53.884Z,73.66
2019-03-27T08:29:15.272Z,72.65
2019-03-27T08:34:36.354Z,71.08
2019-03-27T08:39:57.542Z,71.53
2019-03-27T08:45:18.758Z,71.80
2019-03-27T08:50:39.796Z,70.65
2019-03-27T08:56:01.166Z,69.80
2019-03-27T09:01:22.326Z,68.38
2019-03-27T09:06:44.702Z,68.53
2019-03-27T09:12:05.542Z,68.90
2019-03-27T09:17:26.736Z,70.11
2019-03-27T09:22:47.850Z,70.21
2019-03-27T09:28:08.684Z,69.11
2019-03-27T09:33:29.625Z,68.21
2019-03-27T09:38:50.752Z,69.86
2019-03-27T09:44:12.201Z,68.48
2019-03-27T09:49:33.568Z,68.02
2019-03-27T09:54:54.976Z,67.52
2019-03-27T10:00:20.488Z,68.58
2019-03-27T10:05:41.493Z,68.39
2019-03-27T10:11:02.937Z,66.75
2019-03-27T10:16:23.662Z,65.87
2019-03-27T10:21:45.049Z,65.05
2019-03-27T10:27:06.133Z,63.30
2019-03-27T10:32:26.969Z,63.25
2019-03-27T10:37:47.761Z,62.47
2019-03-27T10:43:08.567Z,61.29
2019-03-27T10:48:29.581Z,61.31
2019-03-27T10:53:50.664Z,61.30
2019-03-27T10:59:11.547Z,60.59
2019-03-27T11:04:32.829Z,62.28
2019-03-27T11:09:54.075Z,61.07
2019-03-27T11:15:15.612Z,58.46
2019-03-27T11:20:37.325Z,58.34
2019-03-27T11:25:58.451Z,58.30
2019-03-27T11:31:19.133Z,58.23
2019-03-27T11:36:40.042Z,58.30
2019-03-27T11:42:01.331Z,58.75
2019-03-27T11:47:22.567Z,55.59
2019-03-27T11:52:43.378Z,55.65
2019-03-27T11:58:04.973Z,56.54
2019-03-27T12:03:25.511Z,57.07
2019-03-27T12:08:46.795Z,59.37
2019-03-27T12:14:08.026Z,56.52
2019-03-27T12:19:29.032Z,54.81
2019-03-27T12:24:49.617Z,53.06
2019-03-27T12:30:11.168Z,52.34
2019-03-27T12:35:32.224Z,54.65
2019-03-27T12:40:54.241Z,53.50
2019-03-27T12:46:15.469Z,53.03
2019-03-27T12:51:36.188Z,52.43
2019-03-27T12:56:57.426Z,52.78
2019-03-27T13:02:18.592Z,53.54
2019-03-27T13:07:49.788Z,52.52
2019-03-27T13:13:02.705Z,50.53
2019-03-27T13:18:23.772Z,52.25
2019-03-27T13:23:45.115Z,51.40
2019-03-27T13:29:06.037Z,50.71
2019-03-27T13:34:27.238Z,50.69
2019-03-27T13:39:48.310Z,49.68
2019-03-27T13:45:10.173Z,48.80
2019-03-27T13:50:30.958Z,50.28
2019-03-27T13:55:51.982Z,49.88
2019-03-27T14:01:13.106Z,50.24
2019-03-27T14:06:34.411Z,50.38
2019-03-27T14:11:55.658Z,50.41
2019-03-27T14:17:16.534Z,51.89
2019-03-27T14:22:38.203Z,54.29
2019-03-27T14:27:58.746Z,52.73
2019-03-27T14:33:20.136Z,53.55
2019-03-27T14:38:40.885Z,52.55
2019-03-27T14:44:02.225Z,52.47
2019-03-27T14:49:22.912Z,54.97
2019-03-27T14:54:43.947Z,56.65
2019-03-27T15:00:07.228Z,55.54
2019-03-27T15:05:29.138Z,56.15
2019-03-27T15:10:49.939Z,53.47
2019-03-27T15:16:11.076Z,56.01
2019-03-27T15:21:32.166Z,53.92
2019-03-27T15:26:53.411Z,54.65
2019-03-27T15:32:14.514Z,53.90
2019-03-27T15:37:35.577Z,54.83
2019-03-27T15:42:56.731Z,52.34
2019-03-27T15:48:17.960Z,52.30
2019-03-27T15:53:39.042Z,53.75
2019-03-27T15:59:00.116Z,53.71
2019-03-27T16:04:20.861Z,50.70
2019-03-27T16:09:41.929Z,51.65
2019-03-27T16:15:03.218Z,53.12
2019-03-27T16:20:24.255Z,52.99
2019-03-27T16:25:45.028Z,53.39
2019-03-27T16:31:06.270Z,55.13
2019-03-27T16:36:27.595Z,56.42
2019-03-27T16:41:48.669Z,57.43
2019-03-27T16:47:09.874Z,54.80
2019-03-27T16:52:30.834Z,56.81
2019-03-27T16:57:52.215Z,57.57
2019-03-27T17:03:13.299Z,57.51
2019-03-27T17:08:34.271Z,58.45
2019-03-27T17:13:55.093Z,59.20
2019-03-27T17:19:15.737Z,59.09
2019-03-27T17:24:37.088Z,59.65
2019-03-27T17:29:58.170Z,59.71
2019-03-27T17:35:18.883Z,60.00
2019-03-27T17:40:40.067Z,59.51
2019-03-27T17:46:01.136Z,59.08
2019-03-27T17:51:22.264Z,60.46
2019-03-27T17:56:43.015Z,61.52
2019-03-27T18:02:04.083Z,62.49
2019-03-27T18:07:25.913Z,61.60
2019-03-27T18:12:47.248Z,62.74
2019-03-27T18:18:08.430Z,61.76
2019-03-27T18:23:29.216Z,65.56
2019-03-27T18:28:49.826Z,67.34
2019-03-27T18:34:10.608Z,69.34
2019-03-27T18:39:31.331Z,70.79
2019-03-27T18:44:51.987Z,72.61
2019-03-27T18:50:13.602Z,72.91
2019-03-27T18:55:34.272Z,73.86
2019-03-27T19:00:54.910Z,73.39
2019-03-27T19:06:15.691Z,74.84
2019-03-27T19:11:36.488Z,75.24
2019-03-27T19:16:57.604Z,74.49
2019-03-27T19:22:18.861Z,73.00
2019-03-27T19:27:40.053Z,72.11
2019-03-27T19:33:01.349Z,72.33
2019-03-27T19:38:22.444Z,71.80
2019-03-27T19:43:43.613Z,72.84
2019-03-27T19:49:05.529Z,73.33
2019-03-27T19:54:27.625Z,72.87
2019-03-27T19:59:49.092Z,72.27
2019-03-27T20:05:11.616Z,70.74
2019-03-27T20:10:32.690Z,70.71
2019-03-27T20:15:53.560Z,70.44
2019-03-27T20:21:14.800Z,70.36
2019-03-27T20:26:35.642Z,70.71
2019-03-27T20:31:57.024Z,69.99
2019-03-27T20:37:17.983Z,70.05
2019-03-27T20:42:38.487Z,69.42
2019-03-27T20:47:59.963Z,69.67
2019-03-27T20:53:20.830Z,69.89
2019-03-27T20:58:41.692Z,70.45
2019-03-27T21:04:02.710Z,69.77
2019-03-27T21:09:24.781Z,70.56
2019-03-27T21:14:45.489Z,70.47
2019-03-27T21:20:08.178Z,70.46
2019-03-27T21:25:29.330Z,70.98
2019-03-27T21:30:50.038Z,71.03
2019-03-27T21:36:10.765Z,70.52
2019-03-27T21:41:31.934Z,70.20
2019-03-27T21:46:53.122Z,69.76
2019-03-27T21:52:14.070Z,69.82
2019-03-27T21:57:35.474Z,70.84
2019-03-27T22:02:56.167Z,69.98
2019-03-27T22:08:18.158Z,69.87
2019-03-27T22:13:39.606Z,70.35
2019-03-27T22:19:00.645Z,69.77
2019-03-27T22:24:21.779Z,69.23
2019-03-27T22:29:42.886Z,69.31
2019-03-27T22:35:04.417Z,69.54
2019-03-27T22:40:25.298Z,69.87
2019-03-27T22:45:46.148Z,69.45
2019-03-27T22:51:07.319Z,70.24
2019-03-27T22:56:28.192Z,70.38
2019-03-27T23:01:49.884Z,70.67
2019-03-27T23:07:11.063Z,69.81
2019-03-27T23:12:32.295Z,70.39
2019-03-27T23:17:54.504Z,70.43
2019-03-27T23:23:15.758Z,70.60
2019-03-27T23:28:36.876Z,71.17
2019-03-27T23:34:00.362Z,71.35
2019-03-27T23:39:20.646Z,71.04
2019-03-27T23:44:42.158Z,72.23
2019-03-27T23:50:04.959Z,72.79
2019-03-27T23:55:26.089Z,73.00
